sensor_id;sensor_type;location;lat;lon;timestamp;temperature;humidity
51613;DHT22;37694;51.748;14.326;2022-11-27T00:01:47;23.00;53.60
51613;DHT22;37694;51.748;14.326;2022-11-27T00:04:13;23.00;53.90
51613;DHT22;37694;51.748;14.326;2022-11-27T00:06:40;23.00;53.90
51613;DHT22;37694;51.748;14.326;2022-11-27T00:09:10;23.00;53.90
51613;DHT22;37694;51.748;14.326;2022-11-27T00:11:36;23.00;53.70
51613;DHT22;37694;51.748;14.326;2022-11-27T00:14:05;22.90;53.60
51613;DHT22;37694;51.748;14.326;2022-11-27T00:16:31;22.90;53.80
51613;DHT22;37694;51.748;14.326;2022-11-27T00:18:57;22.90;53.70
51613;DHT22;37694;51.748;14.326;2022-11-27T00:21:26;22.90;54.10
51613;DHT22;37694;51.748;14.326;2022-11-27T00:23:53;22.90;53.90
51613;DHT22;37694;51.748;14.326;2022-11-27T00:26:19;22.80;53.80
51613;DHT22;37694;51.748;14.326;2022-11-27T00:28:46;22.90;53.80
51613;DHT22;37694;51.748;14.326;2022-11-27T00:33:42;22.80;53.50
51613;DHT22;37694;51.748;14.326;2022-11-27T00:36:08;22.80;53.70
51613;DHT22;37694;51.748;14.326;2022-11-27T00:38:34;22.80;53.70
51613;DHT22;37694;51.748;14.326;2022-11-27T00:41:16;22.80;53.70
51613;DHT22;37694;51.748;14.326;2022-11-27T00:43:42;22.80;53.60
51613;DHT22;37694;51.748;14.326;2022-11-27T00:46:08;22.70;53.80
51613;DHT22;37694;51.748;14.326;2022-11-27T00:48:34;22.70;53.50
51613;DHT22;37694;51.748;14.326;2022-11-27T00:51:03;22.70;53.40
51613;DHT22;37694;51.748;14.326;2022-11-27T00:53:30;22.70;53.60
51613;DHT22;37694;51.748;14.326;2022-11-27T00:55:57;22.70;53.80
51613;DHT22;37694;51.748;14.326;2022-11-27T00:58:23;22.70;53.90
51613;DHT22;37694;51.748;14.326;2022-11-27T01:01:00;22.60;53.90
51613;DHT22;37694;51.748;14.326;2022-11-27T01:03:27;22.70;53.70
51613;DHT22;37694;51.748;14.326;2022-11-27T01:05:53;22.60;53.50
51613;DHT22;37694;51.748;14.326;2022-11-27T01:08:19;22.60;53.80
51613;DHT22;37694;51.748;14.326;2022-11-27T01:10:56;22.60;54.00
51613;DHT22;37694;51.748;14.326;2022-11-27T01:13:28;22.60;54.10
51613;DHT22;37694;51.748;14.326;2022-11-27T01:16:05;22.60;53.70
51613;DHT22;37694;51.748;14.326;2022-11-27T01:18:31;22.60;54.00
51613;DHT22;37694;51.748;14.326;2022-11-27T01:20:57;22.60;54.10
51613;DHT22;37694;51.748;14.326;2022-11-27T01:23:23;22.60;53.90
51613;DHT22;37694;51.748;14.326;2022-11-27T01:25:49;22.60;54.00
51613;DHT22;37694;51.748;14.326;2022-11-27T01:28:18;22.50;53.90
51613;DHT22;37694;51.748;14.326;2022-11-27T01:30:44;22.50;53.90
51613;DHT22;37694;51.748;14.326;2022-11-27T01:33:10;22.50;53.90
51613;DHT22;37694;51.748;14.326;2022-11-27T01:35:36;22.50;54.50
51613;DHT22;37694;51.748;14.326;2022-11-27T01:38:01;22.50;53.80
51613;DHT22;37694;51.748;14.326;2022-11-27T01:40:27;22.50;53.80
51613;DHT22;37694;51.748;14.326;2022-11-27T01:42:53;22.50;53.90
51613;DHT22;37694;51.748;14.326;2022-11-27T01:45:20;22.40;53.70
51613;DHT22;37694;51.748;14.326;2022-11-27T01:48:00;22.50;53.80
51613;DHT22;37694;51.748;14.326;2022-11-27T01:50:33;22.50;54.00
51613;DHT22;37694;51.748;14.326;2022-11-27T01:53:26;22.40;53.90
51613;DHT22;37694;51.748;14.326;2022-11-27T01:55:56;22.40;54.00
51613;DHT22;37694;51.748;14.326;2022-11-27T01:58:26;22.40;54.10
51613;DHT22;37694;51.748;14.326;2022-11-27T02:00:53;22.40;54.00
51613;DHT22;37694;51.748;14.326;2022-11-27T02:03:19;22.40;54.10
51613;DHT22;37694;51.748;14.326;2022-11-27T02:05:45;22.40;54.20
51613;DHT22;37694;51.748;14.326;2022-11-27T02:08:14;22.40;54.10
51613;DHT22;37694;51.748;14.326;2022-11-27T02:16:07;22.40;54.10
51613;DHT22;37694;51.748;14.326;2022-11-27T02:26:41;22.30;53.90
51613;DHT22;37694;51.748;14.326;2022-11-27T02:29:10;22.30;53.70
51613;DHT22;37694;51.748;14.326;2022-11-27T02:34:48;22.30;54.00
51613;DHT22;37694;51.748;14.326;2022-11-27T02:40:42;22.20;54.10
51613;DHT22;37694;51.748;14.326;2022-11-27T02:43:13;22.20;54.00
51613;DHT22;37694;51.748;14.326;2022-11-27T02:45:45;22.20;54.20
51613;DHT22;37694;51.748;14.326;2022-11-27T02:48:13;22.20;53.90
51613;DHT22;37694;51.748;14.326;2022-11-27T02:50:42;22.20;53.90
51613;DHT22;37694;51.748;14.326;2022-11-27T02:53:16;22.20;53.60
51613;DHT22;37694;51.748;14.326;2022-11-27T02:55:44;22.20;53.90
51613;DHT22;37694;51.748;14.326;2022-11-27T02:58:14;22.20;53.70
51613;DHT22;37694;51.748;14.326;2022-11-27T03:00:43;22.20;53.90
51613;DHT22;37694;51.748;14.326;2022-11-27T03:03:12;22.20;54.00
51613;DHT22;37694;51.748;14.326;2022-11-27T03:05:42;22.20;54.00
51613;DHT22;37694;51.748;14.326;2022-11-27T03:13:23;22.10;53.80
51613;DHT22;37694;51.748;14.326;2022-11-27T03:23:48;22.00;53.70
51613;DHT22;37694;51.748;14.326;2022-11-27T03:26:14;22.10;53.80
51613;DHT22;37694;51.748;14.326;2022-11-27T03:28:42;22.10;53.80
51613;DHT22;37694;51.748;14.326;2022-11-27T03:31:08;22.00;53.90
51613;DHT22;37694;51.748;14.326;2022-11-27T03:33:34;22.00;53.70
51613;DHT22;37694;51.748;14.326;2022-11-27T03:36:00;22.00;53.60
51613;DHT22;37694;51.748;14.326;2022-11-27T03:38:26;22.00;53.70
51613;DHT22;37694;51.748;14.326;2022-11-27T03:41:04;22.00;53.80
51613;DHT22;37694;51.748;14.326;2022-11-27T03:43:37;22.00;53.90
51613;DHT22;37694;51.748;14.326;2022-11-27T03:46:30;22.00;53.70
51613;DHT22;37694;51.748;14.326;2022-11-27T03:52:10;22.00;53.90
51613;DHT22;37694;51.748;14.326;2022-11-27T03:57:22;21.90;53.80
51613;DHT22;37694;51.748;14.326;2022-11-27T03:59:52;21.90;53.80
51613;DHT22;37694;51.748;14.326;2022-11-27T04:02:29;21.90;53.50
51613;DHT22;37694;51.748;14.326;2022-11-27T04:04:56;21.90;53.50
51613;DHT22;37694;51.748;14.326;2022-11-27T04:07:22;21.90;53.80
51613;DHT22;37694;51.748;14.326;2022-11-27T04:09:48;21.90;53.60
51613;DHT22;37694;51.748;14.326;2022-11-27T04:12:14;21.90;53.60
51613;DHT22;37694;51.748;14.326;2022-11-27T04:14:39;21.90;53.50
51613;DHT22;37694;51.748;14.326;2022-11-27T04:17:05;21.90;53.60
51613;DHT22;37694;51.748;14.326;2022-11-27T04:19:30;21.90;53.60
51613;DHT22;37694;51.748;14.326;2022-11-27T04:21:56;21.90;53.70
51613;DHT22;37694;51.748;14.326;2022-11-27T04:24:22;21.80;53.70
51613;DHT22;37694;51.748;14.326;2022-11-27T04:26:47;21.80;53.50
51613;DHT22;37694;51.748;14.326;2022-11-27T04:29:13;21.80;53.70
51613;DHT22;37694;51.748;14.326;2022-11-27T04:31:38;21.80;53.60
51613;DHT22;37694;51.748;14.326;2022-11-27T04:34:04;21.80;53.80
51613;DHT22;37694;51.748;14.326;2022-11-27T04:36:30;21.80;53.70
51613;DHT22;37694;51.748;14.326;2022-11-27T04:38:55;21.80;53.60
51613;DHT22;37694;51.748;14.326;2022-11-27T04:41:21;21.80;53.50
51613;DHT22;37694;51.748;14.326;2022-11-27T04:43:46;21.80;53.40
51613;DHT22;37694;51.748;14.326;2022-11-27T04:46:12;21.80;53.50
51613;DHT22;37694;51.748;14.326;2022-11-27T04:48:38;21.80;53.50
51613;DHT22;37694;51.748;14.326;2022-11-27T04:51:03;21.70;53.40
51613;DHT22;37694;51.748;14.326;2022-11-27T04:53:29;21.80;53.70
51613;DHT22;37694;51.748;14.326;2022-11-27T04:55:55;21.70;53.50
51613;DHT22;37694;51.748;14.326;2022-11-27T04:58:20;21.70;53.80
51613;DHT22;37694;51.748;14.326;2022-11-27T05:00:46;21.70;53.90
51613;DHT22;37694;51.748;14.326;2022-11-27T05:03:12;21.70;54.00
51613;DHT22;37694;51.748;14.326;2022-11-27T05:05:37;21.70;53.60
51613;DHT22;37694;51.748;14.326;2022-11-27T05:08:03;21.70;53.70
51613;DHT22;37694;51.748;14.326;2022-11-27T05:10:29;21.70;53.60
51613;DHT22;37694;51.748;14.326;2022-11-27T05:12:54;21.70;53.40
51613;DHT22;37694;51.748;14.326;2022-11-27T05:15:20;21.70;53.10
51613;DHT22;37694;51.748;14.326;2022-11-27T05:17:46;21.70;52.90
51613;DHT22;37694;51.748;14.326;2022-11-27T05:20:11;21.70;52.90
51613;DHT22;37694;51.748;14.326;2022-11-27T05:22:37;21.70;53.90
51613;DHT22;37694;51.748;14.326;2022-11-27T05:25:03;21.70;53.10
51613;DHT22;37694;51.748;14.326;2022-11-27T05:27:28;21.70;53.60
51613;DHT22;37694;51.748;14.326;2022-11-27T05:29:54;21.70;52.90
51613;DHT22;37694;51.748;14.326;2022-11-27T05:32:20;21.70;52.80
51613;DHT22;37694;51.748;14.326;2022-11-27T05:34:45;21.70;52.80
51613;DHT22;37694;51.748;14.326;2022-11-27T05:37:13;21.70;52.80
51613;DHT22;37694;51.748;14.326;2022-11-27T05:39:39;21.70;52.70
51613;DHT22;37694;51.748;14.326;2022-11-27T05:42:04;21.70;52.60
51613;DHT22;37694;51.748;14.326;2022-11-27T05:44:30;21.70;52.30
51613;DHT22;37694;51.748;14.326;2022-11-27T05:46:56;21.70;52.40
51613;DHT22;37694;51.748;14.326;2022-11-27T05:49:21;21.70;52.30
51613;DHT22;37694;51.748;14.326;2022-11-27T05:51:47;21.70;52.30
51613;DHT22;37694;51.748;14.326;2022-11-27T05:54:12;21.70;52.20
51613;DHT22;37694;51.748;14.326;2022-11-27T05:56:38;21.70;52.20
51613;DHT22;37694;51.748;14.326;2022-11-27T05:59:04;21.70;52.30
51613;DHT22;37694;51.748;14.326;2022-11-27T06:01:29;21.70;52.40
51613;DHT22;37694;51.748;14.326;2022-11-27T06:03:55;21.70;52.20
51613;DHT22;37694;51.748;14.326;2022-11-27T06:06:21;21.70;52.00
51613;DHT22;37694;51.748;14.326;2022-11-27T06:08:47;21.70;52.30
51613;DHT22;37694;51.748;14.326;2022-11-27T06:11:16;21.70;52.10
51613;DHT22;37694;51.748;14.326;2022-11-27T06:13:42;21.70;52.40
51613;DHT22;37694;51.748;14.326;2022-11-27T06:16:18;21.70;52.60
51613;DHT22;37694;51.748;14.326;2022-11-27T06:18:44;21.70;52.10
51613;DHT22;37694;51.748;14.326;2022-11-27T06:21:12;21.60;52.30
51613;DHT22;37694;51.748;14.326;2022-11-27T06:23:39;21.60;52.00
51613;DHT22;37694;51.748;14.326;2022-11-27T06:26:18;21.60;52.10
51613;DHT22;37694;51.748;14.326;2022-11-27T06:28:44;21.60;51.80
51613;DHT22;37694;51.748;14.326;2022-11-27T06:31:13;21.60;52.20
51613;DHT22;37694;51.748;14.326;2022-11-27T06:33:39;21.60;52.30
51613;DHT22;37694;51.748;14.326;2022-11-27T06:36:05;21.60;52.60
51613;DHT22;37694;51.748;14.326;2022-11-27T06:38:32;21.60;53.00
51613;DHT22;37694;51.748;14.326;2022-11-27T06:41:07;21.70;53.60
51613;DHT22;37694;51.748;14.326;2022-11-27T06:43:33;21.70;53.70
51613;DHT22;37694;51.748;14.326;2022-11-27T06:46:00;21.80;53.80
51613;DHT22;37694;51.748;14.326;2022-11-27T06:48:26;21.90;53.80
51613;DHT22;37694;51.748;14.326;2022-11-27T06:50:52;22.00;53.90
51613;DHT22;37694;51.748;14.326;2022-11-27T06:53:18;22.10;53.70
51613;DHT22;37694;51.748;14.326;2022-11-27T06:55:44;22.20;53.60
51613;DHT22;37694;51.748;14.326;2022-11-27T06:58:10;22.30;53.70
51613;DHT22;37694;51.748;14.326;2022-11-27T07:00:36;22.40;53.60
51613;DHT22;37694;51.748;14.326;2022-11-27T07:03:02;22.40;53.50
51613;DHT22;37694;51.748;14.326;2022-11-27T07:05:28;22.50;53.30
51613;DHT22;37694;51.748;14.326;2022-11-27T07:07:54;22.50;53.20
51613;DHT22;37694;51.748;14.326;2022-11-27T07:10:20;22.60;53.30
51613;DHT22;37694;51.748;14.326;2022-11-27T07:12:46;22.70;53.20
51613;DHT22;37694;51.748;14.326;2022-11-27T07:15:12;22.80;53.30
51613;DHT22;37694;51.748;14.326;2022-11-27T07:17:37;22.90;54.10
51613;DHT22;37694;51.748;14.326;2022-11-27T07:20:04;23.00;53.30
51613;DHT22;37694;51.748;14.326;2022-11-27T07:22:31;23.00;53.20
51613;DHT22;37694;51.748;14.326;2022-11-27T07:24:57;23.20;53.20
51613;DHT22;37694;51.748;14.326;2022-11-27T07:27:22;23.20;53.00
51613;DHT22;37694;51.748;14.326;2022-11-27T07:29:48;23.30;53.00
51613;DHT22;37694;51.748;14.326;2022-11-27T07:32:14;23.40;53.00
51613;DHT22;37694;51.748;14.326;2022-11-27T07:34:39;23.40;52.90
51613;DHT22;37694;51.748;14.326;2022-11-27T07:37:05;23.50;52.70
51613;DHT22;37694;51.748;14.326;2022-11-27T07:39:31;23.50;52.60
51613;DHT22;37694;51.748;14.326;2022-11-27T07:41:56;23.60;52.60
51613;DHT22;37694;51.748;14.326;2022-11-27T07:44:22;23.60;52.40
51613;DHT22;37694;51.748;14.326;2022-11-27T07:46:48;23.70;52.30
51613;DHT22;37694;51.748;14.326;2022-11-27T07:49:13;23.70;52.30
51613;DHT22;37694;51.748;14.326;2022-11-27T07:51:39;23.70;52.10
51613;DHT22;37694;51.748;14.326;2022-11-27T07:54:04;23.70;52.00
51613;DHT22;37694;51.748;14.326;2022-11-27T07:56:30;23.70;51.90
51613;DHT22;37694;51.748;14.326;2022-11-27T07:58:59;23.70;51.80
51613;DHT22;37694;51.748;14.326;2022-11-27T08:01:24;23.70;51.70
51613;DHT22;37694;51.748;14.326;2022-11-27T08:03:50;23.80;51.80
51613;DHT22;37694;51.748;14.326;2022-11-27T08:06:23;23.70;51.70
51613;DHT22;37694;51.748;14.326;2022-11-27T08:08:49;23.70;51.60
51613;DHT22;37694;51.748;14.326;2022-11-27T08:13:42;23.70;51.50
51613;DHT22;37694;51.748;14.326;2022-11-27T08:16:08;23.70;51.40
51613;DHT22;37694;51.748;14.326;2022-11-27T08:18:33;23.70;52.20
51613;DHT22;37694;51.748;14.326;2022-11-27T08:20:59;23.70;51.50
51613;DHT22;37694;51.748;14.326;2022-11-27T08:23:25;23.70;51.50
51613;DHT22;37694;51.748;14.326;2022-11-27T08:25:51;23.60;51.50
51613;DHT22;37694;51.748;14.326;2022-11-27T08:28:16;23.60;51.50
51613;DHT22;37694;51.748;14.326;2022-11-27T08:30:42;23.60;51.50
51613;DHT22;37694;51.748;14.326;2022-11-27T08:33:07;23.60;51.20
51613;DHT22;37694;51.748;14.326;2022-11-27T08:35:35;23.60;51.20
51613;DHT22;37694;51.748;14.326;2022-11-27T08:38:00;23.60;51.50
51613;DHT22;37694;51.748;14.326;2022-11-27T08:40:26;23.60;51.70
51613;DHT22;37694;51.748;14.326;2022-11-27T08:42:52;23.60;52.20
51613;DHT22;37694;51.748;14.326;2022-11-27T08:45:17;23.60;51.70
51613;DHT22;37694;51.748;14.326;2022-11-27T08:47:43;23.60;51.70
51613;DHT22;37694;51.748;14.326;2022-11-27T08:50:09;23.60;52.10
51613;DHT22;37694;51.748;14.326;2022-11-27T08:52:34;23.60;51.90
51613;DHT22;37694;51.748;14.326;2022-11-27T08:55:00;23.60;51.70
51613;DHT22;37694;51.748;14.326;2022-11-27T08:57:26;23.70;52.10
51613;DHT22;37694;51.748;14.326;2022-11-27T08:59:51;23.70;51.70
51613;DHT22;37694;51.748;14.326;2022-11-27T09:02:17;23.70;51.80
51613;DHT22;37694;51.748;14.326;2022-11-27T09:04:43;23.70;51.60
51613;DHT22;37694;51.748;14.326;2022-11-27T09:07:08;23.70;51.40
51613;DHT22;37694;51.748;14.326;2022-11-27T09:09:36;23.70;51.40
51613;DHT22;37694;51.748;14.326;2022-11-27T09:12:02;23.80;51.50
51613;DHT22;37694;51.748;14.326;2022-11-27T09:14:28;23.80;51.30
51613;DHT22;37694;51.748;14.326;2022-11-27T09:16:54;23.80;51.50
51613;DHT22;37694;51.748;14.326;2022-11-27T09:19:19;23.80;51.80
51613;DHT22;37694;51.748;14.326;2022-11-27T09:21:48;23.80;51.50
51613;DHT22;37694;51.748;14.326;2022-11-27T09:24:15;23.80;51.60
51613;DHT22;37694;51.748;14.326;2022-11-27T09:26:40;23.90;51.30
51613;DHT22;37694;51.748;14.326;2022-11-27T09:29:06;23.90;51.20
51613;DHT22;37694;51.748;14.326;2022-11-27T09:31:31;23.90;51.10
51613;DHT22;37694;51.748;14.326;2022-11-27T09:33:57;23.90;51.70
51613;DHT22;37694;51.748;14.326;2022-11-27T09:36:24;23.90;51.30
51613;DHT22;37694;51.748;14.326;2022-11-27T09:38:51;23.90;50.90
51613;DHT22;37694;51.748;14.326;2022-11-27T09:44:01;23.90;50.80
51613;DHT22;37694;51.748;14.326;2022-11-27T09:46:39;23.90;50.90
51613;DHT22;37694;51.748;14.326;2022-11-27T09:49:13;23.90;51.10
51613;DHT22;37694;51.748;14.326;2022-11-27T09:51:50;23.90;50.70
51613;DHT22;37694;51.748;14.326;2022-11-27T09:54:32;23.90;50.30
51613;DHT22;37694;51.748;14.326;2022-11-27T09:56:59;23.90;50.80
51613;DHT22;37694;51.748;14.326;2022-11-27T09:59:32;23.90;51.00
51613;DHT22;37694;51.748;14.326;2022-11-27T10:02:00;23.90;50.70
51613;DHT22;37694;51.748;14.326;2022-11-27T10:04:26;23.90;50.60
51613;DHT22;37694;51.748;14.326;2022-11-27T10:12:44;23.90;50.90
51613;DHT22;37694;51.748;14.326;2022-11-27T10:15:26;23.90;50.20
51613;DHT22;37694;51.748;14.326;2022-11-27T10:21:10;23.80;47.90
51613;DHT22;37694;51.748;14.326;2022-11-27T10:28:51;23.70;48.10
51613;DHT22;37694;51.748;14.326;2022-11-27T10:31:34;23.70;48.20
51613;DHT22;37694;51.748;14.326;2022-11-27T10:34:04;23.70;48.30
51613;DHT22;37694;51.748;14.326;2022-11-27T10:36:46;23.70;48.10
51613;DHT22;37694;51.748;14.326;2022-11-27T10:39:21;23.80;48.40
51613;DHT22;37694;51.748;14.326;2022-11-27T10:41:56;23.70;48.50
51613;DHT22;37694;51.748;14.326;2022-11-27T10:44:56;23.70;48.40
51613;DHT22;37694;51.748;14.326;2022-11-27T10:47:24;23.80;48.60
51613;DHT22;37694;51.748;14.326;2022-11-27T10:49:51;23.80;48.60
51613;DHT22;37694;51.748;14.326;2022-11-27T10:52:18;23.80;48.80
51613;DHT22;37694;51.748;14.326;2022-11-27T10:54:48;23.70;48.40
51613;DHT22;37694;51.748;14.326;2022-11-27T10:57:37;23.80;48.50
51613;DHT22;37694;51.748;14.326;2022-11-27T11:00:18;23.80;48.70
51613;DHT22;37694;51.748;14.326;2022-11-27T11:02:45;23.70;48.60
51613;DHT22;37694;51.748;14.326;2022-11-27T11:07:42;23.80;48.60
51613;DHT22;37694;51.748;14.326;2022-11-27T11:10:34;23.70;48.80
51613;DHT22;37694;51.748;14.326;2022-11-27T11:13:16;23.80;48.60
51613;DHT22;37694;51.748;14.326;2022-11-27T11:18:44;23.70;48.50
51613;DHT22;37694;51.748;14.326;2022-11-27T11:21:26;23.70;48.50
51613;DHT22;37694;51.748;14.326;2022-11-27T11:24:14;23.80;48.60
51613;DHT22;37694;51.748;14.326;2022-11-27T11:26:48;23.80;48.50
51613;DHT22;37694;51.748;14.326;2022-11-27T11:32:04;23.80;48.60
51613;DHT22;37694;51.748;14.326;2022-11-27T11:34:30;23.70;48.60
51613;DHT22;37694;51.748;14.326;2022-11-27T11:37:00;23.70;48.40
51613;DHT22;37694;51.748;14.326;2022-11-27T11:39:29;23.70;48.50
51613;DHT22;37694;51.748;14.326;2022-11-27T11:41:55;23.70;48.70
51613;DHT22;37694;51.748;14.326;2022-11-27T11:44:23;23.70;48.80
51613;DHT22;37694;51.748;14.326;2022-11-27T11:46:54;23.70;47.50
51613;DHT22;37694;51.748;14.326;2022-11-27T11:49:23;23.70;45.90
51613;DHT22;37694;51.748;14.326;2022-11-27T12:00:20;23.70;47.60
51613;DHT22;37694;51.748;14.326;2022-11-27T12:09:02;23.90;47.60
51613;DHT22;37694;51.748;14.326;2022-11-27T12:11:13;23.90;47.40
51613;DHT22;37694;51.748;14.326;2022-11-27T12:30:21;23.90;49.00
51613;DHT22;37694;51.748;14.326;2022-11-27T12:35:50;23.90;48.10
51613;DHT22;37694;51.748;14.326;2022-11-27T12:38:51;23.90;48.90
51613;DHT22;37694;51.748;14.326;2022-11-27T12:43:53;23.90;48.40
51613;DHT22;37694;51.748;14.326;2022-11-27T12:46:50;23.90;47.10
51613;DHT22;37694;51.748;14.326;2022-11-27T12:49:29;23.90;46.30
51613;DHT22;37694;51.748;14.326;2022-11-27T12:54:36;23.90;46.60
51613;DHT22;37694;51.748;14.326;2022-11-27T12:57:10;23.90;46.80
51613;DHT22;37694;51.748;14.326;2022-11-27T12:59:40;23.90;47.10
51613;DHT22;37694;51.748;14.326;2022-11-27T13:05:02;23.80;47.20
51613;DHT22;37694;51.748;14.326;2022-11-27T13:13:14;23.90;47.50
51613;DHT22;37694;51.748;14.326;2022-11-27T13:16:06;23.90;47.70
51613;DHT22;37694;51.748;14.326;2022-11-27T13:18:53;23.90;49.50
51613;DHT22;37694;51.748;14.326;2022-11-27T13:21:28;23.90;48.80
51613;DHT22;37694;51.748;14.326;2022-11-27T13:23:54;23.90;48.50
51613;DHT22;37694;51.748;14.326;2022-11-27T13:26:31;24.00;49.00
51613;DHT22;37694;51.748;14.326;2022-11-27T13:29:05;24.00;49.00
51613;DHT22;37694;51.748;14.326;2022-11-27T13:31:35;24.00;49.00
51613;DHT22;37694;51.748;14.326;2022-11-27T13:34:05;24.10;49.00
51613;DHT22;37694;51.748;14.326;2022-11-27T13:36:40;24.10;49.00
51613;DHT22;37694;51.748;14.326;2022-11-27T13:39:29;24.10;49.10
51613;DHT22;37694;51.748;14.326;2022-11-27T13:42:17;24.10;49.10
51613;DHT22;37694;51.748;14.326;2022-11-27T13:45:01;24.10;49.00
51613;DHT22;37694;51.748;14.326;2022-11-27T13:47:36;24.10;49.00
51613;DHT22;37694;51.748;14.326;2022-11-27T13:50:10;24.10;49.30
51613;DHT22;37694;51.748;14.326;2022-11-27T13:52:37;24.10;49.20
51613;DHT22;37694;51.748;14.326;2022-11-27T13:55:51;24.10;49.30
51613;DHT22;37694;51.748;14.326;2022-11-27T13:58:07;24.10;49.30
51613;DHT22;37694;51.748;14.326;2022-11-27T14:00:41;24.10;49.40
51613;DHT22;37694;51.748;14.326;2022-11-27T14:03:24;24.10;49.20
51613;DHT22;37694;51.748;14.326;2022-11-27T14:05:50;24.10;49.10
51613;DHT22;37694;51.748;14.326;2022-11-27T14:08:36;24.10;49.20
51613;DHT22;37694;51.748;14.326;2022-11-27T14:11:05;24.10;48.90
51613;DHT22;37694;51.748;14.326;2022-11-27T14:13:45;24.10;49.00
51613;DHT22;37694;51.748;14.326;2022-11-27T14:18:51;24.00;48.90
51613;DHT22;37694;51.748;14.326;2022-11-27T14:21:38;24.00;48.00
51613;DHT22;37694;51.748;14.326;2022-11-27T14:24:38;24.00;48.10
51613;DHT22;37694;51.748;14.326;2022-11-27T14:27:22;23.90;48.40
51613;DHT22;37694;51.748;14.326;2022-11-27T14:29:49;23.90;48.40
51613;DHT22;37694;51.748;14.326;2022-11-27T14:32:16;23.90;48.60
51613;DHT22;37694;51.748;14.326;2022-11-27T14:34:42;23.90;48.80
51613;DHT22;37694;51.748;14.326;2022-11-27T14:37:25;23.90;49.30
51613;DHT22;37694;51.748;14.326;2022-11-27T14:39:52;23.90;49.00
51613;DHT22;37694;51.748;14.326;2022-11-27T14:42:26;23.90;48.70
51613;DHT22;37694;51.748;14.326;2022-11-27T14:45:17;23.90;49.10
51613;DHT22;37694;51.748;14.326;2022-11-27T14:47:52;23.90;49.10
51613;DHT22;37694;51.748;14.326;2022-11-27T14:50:20;23.90;49.00
51613;DHT22;37694;51.748;14.326;2022-11-27T14:52:51;23.90;49.20
51613;DHT22;37694;51.748;14.326;2022-11-27T14:55:18;23.90;49.10
51613;DHT22;37694;51.748;14.326;2022-11-27T14:57:47;23.80;49.20
51613;DHT22;37694;51.748;14.326;2022-11-27T15:00:15;23.80;49.20
51613;DHT22;37694;51.748;14.326;2022-11-27T15:02:42;23.80;49.20
51613;DHT22;37694;51.748;14.326;2022-11-27T15:05:20;23.90;49.30
51613;DHT22;37694;51.748;14.326;2022-11-27T15:07:46;23.80;48.90
51613;DHT22;37694;51.748;14.326;2022-11-27T15:10:35;23.80;48.90
51613;DHT22;37694;51.748;14.326;2022-11-27T15:13:02;23.80;48.90
51613;DHT22;37694;51.748;14.326;2022-11-27T15:15:40;23.70;48.40
51613;DHT22;37694;51.748;14.326;2022-11-27T15:18:12;23.70;48.70
51613;DHT22;37694;51.748;14.326;2022-11-27T15:20:44;23.70;48.60
51613;DHT22;37694;51.748;14.326;2022-11-27T15:23:16;23.80;49.30
51613;DHT22;37694;51.748;14.326;2022-11-27T15:25:46;23.80;48.60
51613;DHT22;37694;51.748;14.326;2022-11-27T15:30:48;23.80;48.90
51613;DHT22;37694;51.748;14.326;2022-11-27T15:33:30;23.70;49.20
51613;DHT22;37694;51.748;14.326;2022-11-27T15:36:16;23.70;50.50
51613;DHT22;37694;51.748;14.326;2022-11-27T15:38:43;23.70;49.90
51613;DHT22;37694;51.748;14.326;2022-11-27T15:41:25;23.80;49.60
51613;DHT22;37694;51.748;14.326;2022-11-27T15:43:51;23.80;49.80
51613;DHT22;37694;51.748;14.326;2022-11-27T15:46:28;23.70;49.50
51613;DHT22;37694;51.748;14.326;2022-11-27T15:48:55;23.70;49.90
51613;DHT22;37694;51.748;14.326;2022-11-27T15:51:21;23.70;49.80
51613;DHT22;37694;51.748;14.326;2022-11-27T15:53:47;23.70;49.80
51613;DHT22;37694;51.748;14.326;2022-11-27T15:56:14;23.70;49.60
51613;DHT22;37694;51.748;14.326;2022-11-27T15:58:40;23.60;48.70
51613;DHT22;37694;51.748;14.326;2022-11-27T16:01:06;23.60;49.00
51613;DHT22;37694;51.748;14.326;2022-11-27T16:03:32;23.60;48.40
51613;DHT22;37694;51.748;14.326;2022-11-27T16:06:05;23.60;48.30
51613;DHT22;37694;51.748;14.326;2022-11-27T16:08:31;23.60;48.50
51613;DHT22;37694;51.748;14.326;2022-11-27T16:11:01;23.60;49.10
51613;DHT22;37694;51.748;14.326;2022-11-27T16:13:27;23.60;49.60
51613;DHT22;37694;51.748;14.326;2022-11-27T16:15:53;23.60;49.60
51613;DHT22;37694;51.748;14.326;2022-11-27T16:18:19;23.50;49.90
51613;DHT22;37694;51.748;14.326;2022-11-27T16:20:44;23.50;49.10
51613;DHT22;37694;51.748;14.326;2022-11-27T16:23:10;23.50;49.30
51613;DHT22;37694;51.748;14.326;2022-11-27T16:25:39;23.60;49.40
51613;DHT22;37694;51.748;14.326;2022-11-27T16:28:04;23.50;49.10
51613;DHT22;37694;51.748;14.326;2022-11-27T16:30:30;23.50;50.00
51613;DHT22;37694;51.748;14.326;2022-11-27T16:32:56;23.50;49.50
51613;DHT22;37694;51.748;14.326;2022-11-27T16:35:23;23.50;49.70
51613;DHT22;37694;51.748;14.326;2022-11-27T16:37:49;23.50;49.80
51613;DHT22;37694;51.748;14.326;2022-11-27T16:40:14;23.50;49.60
51613;DHT22;37694;51.748;14.326;2022-11-27T16:42:40;23.50;50.30
51613;DHT22;37694;51.748;14.326;2022-11-27T16:45:06;23.50;50.50
51613;DHT22;37694;51.748;14.326;2022-11-27T16:47:32;23.60;50.60
51613;DHT22;37694;51.748;14.326;2022-11-27T16:49:58;23.50;50.80
51613;DHT22;37694;51.748;14.326;2022-11-27T16:52:23;23.50;50.60
51613;DHT22;37694;51.748;14.326;2022-11-27T16:54:49;23.50;50.70
51613;DHT22;37694;51.748;14.326;2022-11-27T16:57:14;23.50;51.10
51613;DHT22;37694;51.748;14.326;2022-11-27T16:59:40;23.50;51.10
51613;DHT22;37694;51.748;14.326;2022-11-27T17:02:06;23.50;51.20
51613;DHT22;37694;51.748;14.326;2022-11-27T17:04:31;23.50;51.20
51613;DHT22;37694;51.748;14.326;2022-11-27T17:06:59;23.50;51.40
51613;DHT22;37694;51.748;14.326;2022-11-27T17:09:24;23.50;51.80
51613;DHT22;37694;51.748;14.326;2022-11-27T17:11:54;23.50;51.70
51613;DHT22;37694;51.748;14.326;2022-11-27T17:14:20;23.50;51.60
51613;DHT22;37694;51.748;14.326;2022-11-27T17:16:46;23.50;51.70
51613;DHT22;37694;51.748;14.326;2022-11-27T17:19:12;23.50;52.00
51613;DHT22;37694;51.748;14.326;2022-11-27T17:21:39;23.60;52.20
51613;DHT22;37694;51.748;14.326;2022-11-27T17:24:07;23.60;52.00
51613;DHT22;37694;51.748;14.326;2022-11-27T17:26:33;23.50;52.60
51613;DHT22;37694;51.748;14.326;2022-11-27T17:28:59;23.50;52.40
51613;DHT22;37694;51.748;14.326;2022-11-27T17:31:29;23.50;52.00